sensor_id;sensor_type;location;lat;lon;timestamp;P1;durP1;ratioP1;P2;durP2;ratioP2
52724;SDS011;38621;52.830;6.914;2023-04-06T00:01:36;4.95;;;3.67;;
52724;SDS011;38621;52.830;6.914;2023-04-06T00:04:03;4.93;;;3.58;;
52724;SDS011;38621;52.830;6.914;2023-04-06T00:06:29;4.32;;;3.58;;
52724;SDS011;38621;52.830;6.914;2023-04-06T00:08:55;4.85;;;3.58;;
52724;SDS011;38621;52.830;6.914;2023-04-06T00:11:21;6.03;;;3.78;;
52724;SDS011;38621;52.830;6.914;2023-04-06T00:13:47;6.30;;;3.90;;
52724;SDS011;38621;52.830;6.914;2023-04-06T00:16:13;6.63;;;3.85;;
52724;SDS011;38621;52.830;6.914;2023-04-06T00:18:39;5.60;;;4.28;;
52724;SDS011;38621;52.830;6.914;2023-04-06T00:21:05;5.68;;;4.40;;
52724;SDS011;38621;52.830;6.914;2023-04-06T00:23:31;5.03;;;3.75;;
52724;SDS011;38621;52.830;6.914;2023-04-06T00:25:57;5.55;;;4.25;;
52724;SDS011;38621;52.830;6.914;2023-04-06T00:28:22;6.45;;;3.85;;
52724;SDS011;38621;52.830;6.914;2023-04-06T00:30:51;5.05;;;4.00;;
52724;SDS011;38621;52.830;6.914;2023-04-06T00:33:19;6.20;;;4.47;;
52724;SDS011;38621;52.830;6.914;2023-04-06T00:35:45;5.55;;;3.88;;
52724;SDS011;38621;52.830;6.914;2023-04-06T00:38:11;5.68;;;3.80;;
52724;SDS011;38621;52.830;6.914;2023-04-06T00:40:37;5.70;;;3.83;;
52724;SDS011;38621;52.830;6.914;2023-04-06T00:43:05;5.10;;;3.92;;
52724;SDS011;38621;52.830;6.914;2023-04-06T00:45:31;5.45;;;4.15;;
52724;SDS011;38621;52.830;6.914;2023-04-06T00:47:58;5.20;;;4.13;;
52724;SDS011;38621;52.830;6.914;2023-04-06T00:50:24;7.13;;;4.00;;
52724;SDS011;38621;52.830;6.914;2023-04-06T00:52:49;6.60;;;4.07;;
52724;SDS011;38621;52.830;6.914;2023-04-06T00:55:16;6.15;;;4.53;;
52724;SDS011;38621;52.830;6.914;2023-04-06T00:57:42;6.15;;;4.40;;
52724;SDS011;38621;52.830;6.914;2023-04-06T01:00:08;5.32;;;4.25;;
52724;SDS011;38621;52.830;6.914;2023-04-06T01:02:35;5.15;;;4.20;;
52724;SDS011;38621;52.830;6.914;2023-04-06T01:05:01;4.78;;;4.20;;
52724;SDS011;38621;52.830;6.914;2023-04-06T01:07:27;5.95;;;4.60;;
52724;SDS011;38621;52.830;6.914;2023-04-06T01:09:56;10.63;;;9.63;;
52724;SDS011;38621;52.830;6.914;2023-04-06T01:12:21;7.80;;;6.25;;
52724;SDS011;38621;52.830;6.914;2023-04-06T01:14:47;7.47;;;4.80;;
52724;SDS011;38621;52.830;6.914;2023-04-06T01:17:13;5.45;;;4.82;;
52724;SDS011;38621;52.830;6.914;2023-04-06T01:19:39;5.10;;;3.97;;
52724;SDS011;38621;52.830;6.914;2023-04-06T01:22:05;4.22;;;3.72;;
52724;SDS011;38621;52.830;6.914;2023-04-06T01:24:32;5.13;;;3.97;;
52724;SDS011;38621;52.830;6.914;2023-04-06T01:26:58;6.65;;;4.20;;
52724;SDS011;38621;52.830;6.914;2023-04-06T01:29:24;6.78;;;3.92;;
52724;SDS011;38621;52.830;6.914;2023-04-06T01:31:50;4.80;;;4.00;;
52724;SDS011;38621;52.830;6.914;2023-04-06T01:34:16;6.13;;;4.20;;
52724;SDS011;38621;52.830;6.914;2023-04-06T01:36:41;7.13;;;4.45;;
52724;SDS011;38621;52.830;6.914;2023-04-06T01:39:07;5.38;;;4.40;;
52724;SDS011;38621;52.830;6.914;2023-04-06T01:41:33;5.80;;;3.97;;
52724;SDS011;38621;52.830;6.914;2023-04-06T01:43:59;5.70;;;4.25;;
52724;SDS011;38621;52.830;6.914;2023-04-06T01:46:25;4.68;;;3.90;;
52724;SDS011;38621;52.830;6.914;2023-04-06T01:48:51;7.00;;;4.43;;
52724;SDS011;38621;52.830;6.914;2023-04-06T01:51:17;5.88;;;4.43;;
52724;SDS011;38621;52.830;6.914;2023-04-06T01:53:43;8.05;;;4.90;;
52724;SDS011;38621;52.830;6.914;2023-04-06T01:56:08;5.97;;;4.55;;
52724;SDS011;38621;52.830;6.914;2023-04-06T01:58:34;6.10;;;4.72;;
52724;SDS011;38621;52.830;6.914;2023-04-06T02:01:00;7.10;;;4.53;;
52724;SDS011;38621;52.830;6.914;2023-04-06T02:03:26;6.18;;;4.65;;
52724;SDS011;38621;52.830;6.914;2023-04-06T02:05:52;5.90;;;4.18;;
52724;SDS011;38621;52.830;6.914;2023-04-06T02:08:17;8.18;;;4.65;;
52724;SDS011;38621;52.830;6.914;2023-04-06T02:10:43;6.75;;;4.30;;
52724;SDS011;38621;52.830;6.914;2023-04-06T02:13:09;5.45;;;4.70;;
52724;SDS011;38621;52.830;6.914;2023-04-06T02:15:34;5.53;;;4.45;;
52724;SDS011;38621;52.830;6.914;2023-04-06T02:18:00;6.85;;;4.30;;
52724;SDS011;38621;52.830;6.914;2023-04-06T02:20:26;6.88;;;4.75;;
52724;SDS011;38621;52.830;6.914;2023-04-06T02:22:52;5.47;;;4.40;;
52724;SDS011;38621;52.830;6.914;2023-04-06T02:25:17;5.75;;;4.38;;
52724;SDS011;38621;52.830;6.914;2023-04-06T02:27:43;6.53;;;4.30;;
52724;SDS011;38621;52.830;6.914;2023-04-06T02:30:09;5.65;;;4.53;;
52724;SDS011;38621;52.830;6.914;2023-04-06T02:32:35;6.55;;;5.18;;
52724;SDS011;38621;52.830;6.914;2023-04-06T02:35:01;26.35;;;23.67;;
52724;SDS011;38621;52.830;6.914;2023-04-06T02:37:26;10.23;;;6.55;;
52724;SDS011;38621;52.830;6.914;2023-04-06T02:39:52;6.53;;;4.72;;
52724;SDS011;38621;52.830;6.914;2023-04-06T02:42:18;8.25;;;5.05;;
52724;SDS011;38621;52.830;6.914;2023-04-06T02:44:44;5.45;;;4.30;;
52724;SDS011;38621;52.830;6.914;2023-04-06T02:47:09;6.22;;;4.75;;
52724;SDS011;38621;52.830;6.914;2023-04-06T02:49:35;5.95;;;4.80;;
52724;SDS011;38621;52.830;6.914;2023-04-06T02:52:01;8.55;;;5.85;;
52724;SDS011;38621;52.830;6.914;2023-04-06T02:54:27;6.20;;;5.03;;
52724;SDS011;38621;52.830;6.914;2023-04-06T02:56:53;6.55;;;5.25;;
52724;SDS011;38621;52.830;6.914;2023-04-06T02:59:19;7.65;;;5.25;;
52724;SDS011;38621;52.830;6.914;2023-04-06T03:01:45;5.68;;;4.63;;
52724;SDS011;38621;52.830;6.914;2023-04-06T03:04:11;7.03;;;5.18;;
52724;SDS011;38621;52.830;6.914;2023-04-06T03:06:37;7.47;;;5.13;;
52724;SDS011;38621;52.830;6.914;2023-04-06T03:09:02;8.40;;;5.28;;
52724;SDS011;38621;52.830;6.914;2023-04-06T03:11:28;7.15;;;4.80;;
52724;SDS011;38621;52.830;6.914;2023-04-06T03:13:54;5.90;;;4.82;;
52724;SDS011;38621;52.830;6.914;2023-04-06T03:16:20;6.18;;;4.90;;
52724;SDS011;38621;52.830;6.914;2023-04-06T03:18:45;6.32;;;5.07;;
52724;SDS011;38621;52.830;6.914;2023-04-06T03:21:12;6.38;;;4.80;;
52724;SDS011;38621;52.830;6.914;2023-04-06T03:23:40;6.65;;;4.53;;
52724;SDS011;38621;52.830;6.914;2023-04-06T03:26:06;6.45;;;4.88;;
52724;SDS011;38621;52.830;6.914;2023-04-06T03:28:32;7.60;;;5.60;;
52724;SDS011;38621;52.830;6.914;2023-04-06T03:30:58;9.50;;;5.15;;
52724;SDS011;38621;52.830;6.914;2023-04-06T03:33:23;6.00;;;4.90;;
52724;SDS011;38621;52.830;6.914;2023-04-06T03:35:52;7.05;;;4.60;;
52724;SDS011;38621;52.830;6.914;2023-04-06T03:38:18;6.75;;;4.63;;
52724;SDS011;38621;52.830;6.914;2023-04-06T03:40:45;8.63;;;5.05;;
52724;SDS011;38621;52.830;6.914;2023-04-06T03:43:11;8.02;;;4.65;;
52724;SDS011;38621;52.830;6.914;2023-04-06T03:45:37;8.65;;;4.72;;
52724;SDS011;38621;52.830;6.914;2023-04-06T03:48:02;6.07;;;4.80;;
52724;SDS011;38621;52.830;6.914;2023-04-06T03:50:28;5.90;;;4.57;;
52724;SDS011;38621;52.830;6.914;2023-04-06T03:52:54;6.18;;;4.50;;
52724;SDS011;38621;52.830;6.914;2023-04-06T03:55:20;7.32;;;4.82;;
52724;SDS011;38621;52.830;6.914;2023-04-06T03:57:46;6.93;;;4.65;;
52724;SDS011;38621;52.830;6.914;2023-04-06T04:00:12;6.15;;;4.57;;
52724;SDS011;38621;52.830;6.914;2023-04-06T04:02:38;6.35;;;4.80;;
52724;SDS011;38621;52.830;6.914;2023-04-06T04:05:04;6.18;;;4.68;;
52724;SDS011;38621;52.830;6.914;2023-04-06T04:07:30;6.68;;;4.10;;
52724;SDS011;38621;52.830;6.914;2023-04-06T04:09:55;7.00;;;4.43;;
52724;SDS011;38621;52.830;6.914;2023-04-06T04:12:21;6.53;;;4.40;;
52724;SDS011;38621;52.830;6.914;2023-04-06T04:14:47;7.18;;;4.78;;
52724;SDS011;38621;52.830;6.914;2023-04-06T04:17:12;6.30;;;4.70;;
52724;SDS011;38621;52.830;6.914;2023-04-06T04:19:38;6.18;;;4.75;;
52724;SDS011;38621;52.830;6.914;2023-04-06T04:22:04;8.25;;;4.45;;
52724;SDS011;38621;52.830;6.914;2023-04-06T04:24:30;7.95;;;5.20;;
52724;SDS011;38621;52.830;6.914;2023-04-06T04:26:56;5.20;;;4.18;;
52724;SDS011;38621;52.830;6.914;2023-04-06T04:29:22;5.35;;;4.22;;
52724;SDS011;38621;52.830;6.914;2023-04-06T04:31:48;7.43;;;4.68;;
52724;SDS011;38621;52.830;6.914;2023-04-06T04:34:14;6.40;;;4.68;;
52724;SDS011;38621;52.830;6.914;2023-04-06T04:36:40;6.63;;;4.63;;
52724;SDS011;38621;52.830;6.914;2023-04-06T04:39:09;6.78;;;4.45;;
52724;SDS011;38621;52.830;6.914;2023-04-06T04:41:34;6.03;;;4.65;;
52724;SDS011;38621;52.830;6.914;2023-04-06T04:44:00;6.90;;;4.70;;
52724;SDS011;38621;52.830;6.914;2023-04-06T04:46:26;5.97;;;4.60;;
52724;SDS011;38621;52.830;6.914;2023-04-06T04:48:51;6.10;;;4.55;;
52724;SDS011;38621;52.830;6.914;2023-04-06T04:51:17;6.35;;;4.47;;
52724;SDS011;38621;52.830;6.914;2023-04-06T04:53:44;6.28;;;4.95;;
52724;SDS011;38621;52.830;6.914;2023-04-06T04:56:10;5.70;;;4.57;;
52724;SDS011;38621;52.830;6.914;2023-04-06T04:58:36;6.00;;;4.45;;
52724;SDS011;38621;52.830;6.914;2023-04-06T05:01:01;7.43;;;4.57;;
52724;SDS011;38621;52.830;6.914;2023-04-06T05:03:27;7.53;;;4.88;;
52724;SDS011;38621;52.830;6.914;2023-04-06T05:05:53;7.05;;;5.30;;
52724;SDS011;38621;52.830;6.914;2023-04-06T05:08:19;6.28;;;5.03;;
52724;SDS011;38621;52.830;6.914;2023-04-06T05:10:45;8.23;;;4.32;;
52724;SDS011;38621;52.830;6.914;2023-04-06T05:13:13;7.72;;;4.60;;
52724;SDS011;38621;52.830;6.914;2023-04-06T05:15:39;7.32;;;5.10;;
52724;SDS011;38621;52.830;6.914;2023-04-06T05:18:06;7.28;;;5.38;;
52724;SDS011;38621;52.830;6.914;2023-04-06T05:20:32;7.03;;;5.53;;
52724;SDS011;38621;52.830;6.914;2023-04-06T05:22:58;6.90;;;4.90;;
52724;SDS011;38621;52.830;6.914;2023-04-06T05:25:24;7.15;;;5.28;;
52724;SDS011;38621;52.830;6.914;2023-04-06T05:27:50;6.50;;;4.72;;
52724;SDS011;38621;52.830;6.914;2023-04-06T05:30:16;7.22;;;5.00;;
52724;SDS011;38621;52.830;6.914;2023-04-06T05:32:41;7.07;;;4.97;;
52724;SDS011;38621;52.830;6.914;2023-04-06T05:35:09;7.68;;;5.47;;
52724;SDS011;38621;52.830;6.914;2023-04-06T05:37:35;6.80;;;4.80;;
52724;SDS011;38621;52.830;6.914;2023-04-06T05:40:01;7.70;;;5.20;;
52724;SDS011;38621;52.830;6.914;2023-04-06T05:42:27;7.10;;;5.10;;
52724;SDS011;38621;52.830;6.914;2023-04-06T05:44:53;7.00;;;4.68;;
52724;SDS011;38621;52.830;6.914;2023-04-06T05:47:18;7.63;;;4.80;;
52724;SDS011;38621;52.830;6.914;2023-04-06T05:49:44;6.82;;;4.80;;
52724;SDS011;38621;52.830;6.914;2023-04-06T05:52:10;7.28;;;4.88;;
52724;SDS011;38621;52.830;6.914;2023-04-06T05:54:36;6.45;;;4.60;;
52724;SDS011;38621;52.830;6.914;2023-04-06T05:57:02;8.07;;;5.32;;
52724;SDS011;38621;52.830;6.914;2023-04-06T05:59:31;6.53;;;5.05;;
52724;SDS011;38621;52.830;6.914;2023-04-06T06:01:57;7.82;;;5.05;;
52724;SDS011;38621;52.830;6.914;2023-04-06T06:04:23;6.85;;;4.93;;
52724;SDS011;38621;52.830;6.914;2023-04-06T06:06:49;9.27;;;5.85;;
52724;SDS011;38621;52.830;6.914;2023-04-06T06:09:14;7.93;;;5.03;;
52724;SDS011;38621;52.830;6.914;2023-04-06T06:11:40;7.00;;;5.47;;
52724;SDS011;38621;52.830;6.914;2023-04-06T06:14:07;7.32;;;4.78;;
52724;SDS011;38621;52.830;6.914;2023-04-06T06:16:33;7.63;;;5.15;;
52724;SDS011;38621;52.830;6.914;2023-04-06T06:18:59;7.43;;;5.05;;
52724;SDS011;38621;52.830;6.914;2023-04-06T06:21:24;7.63;;;4.90;;
52724;SDS011;38621;52.830;6.914;2023-04-06T06:23:50;7.38;;;4.82;;
52724;SDS011;38621;52.830;6.914;2023-04-06T06:26:16;6.25;;;5.10;;
52724;SDS011;38621;52.830;6.914;2023-04-06T06:28:42;6.47;;;4.85;;
52724;SDS011;38621;52.830;6.914;2023-04-06T06:31:08;8.50;;;5.28;;
52724;SDS011;38621;52.830;6.914;2023-04-06T06:33:33;6.82;;;5.20;;
52724;SDS011;38621;52.830;6.914;2023-04-06T06:35:59;7.55;;;5.50;;
52724;SDS011;38621;52.830;6.914;2023-04-06T06:38:25;8.43;;;5.22;;
52724;SDS011;38621;52.830;6.914;2023-04-06T06:40:52;7.78;;;5.65;;
52724;SDS011;38621;52.830;6.914;2023-04-06T06:43:18;7.40;;;5.15;;
52724;SDS011;38621;52.830;6.914;2023-04-06T06:45:43;8.57;;;6.18;;
52724;SDS011;38621;52.830;6.914;2023-04-06T06:48:09;7.82;;;5.80;;
52724;SDS011;38621;52.830;6.914;2023-04-06T06:50:36;8.15;;;5.90;;
52724;SDS011;38621;52.830;6.914;2023-04-06T06:53:01;10.40;;;5.70;;
52724;SDS011;38621;52.830;6.914;2023-04-06T06:55:27;8.55;;;5.72;;
52724;SDS011;38621;52.830;6.914;2023-04-06T06:57:53;7.95;;;5.40;;
52724;SDS011;38621;52.830;6.914;2023-04-06T07:00:18;8.38;;;6.07;;
52724;SDS011;38621;52.830;6.914;2023-04-06T07:02:47;9.13;;;5.75;;
52724;SDS011;38621;52.830;6.914;2023-04-06T07:05:13;9.40;;;5.72;;
52724;SDS011;38621;52.830;6.914;2023-04-06T07:07:40;7.72;;;5.88;;
52724;SDS011;38621;52.830;6.914;2023-04-06T07:10:07;9.95;;;5.95;;
52724;SDS011;38621;52.830;6.914;2023-04-06T07:12:33;8.25;;;5.88;;
52724;SDS011;38621;52.830;6.914;2023-04-06T07:14:59;9.18;;;5.82;;
52724;SDS011;38621;52.830;6.914;2023-04-06T07:17:25;8.07;;;6.30;;
52724;SDS011;38621;52.830;6.914;2023-04-06T07:19:51;10.10;;;6.45;;
52724;SDS011;38621;52.830;6.914;2023-04-06T07:22:16;7.95;;;6.20;;
52724;SDS011;38621;52.830;6.914;2023-04-06T07:24:42;8.00;;;5.90;;
52724;SDS011;38621;52.830;6.914;2023-04-06T07:27:08;10.05;;;6.32;;
52724;SDS011;38621;52.830;6.914;2023-04-06T07:29:34;8.45;;;5.90;;
52724;SDS011;38621;52.830;6.914;2023-04-06T07:31:59;7.63;;;5.57;;
52724;SDS011;38621;52.830;6.914;2023-04-06T07:34:25;8.13;;;6.07;;
52724;SDS011;38621;52.830;6.914;2023-04-06T07:36:51;10.50;;;6.80;;
52724;SDS011;38621;52.830;6.914;2023-04-06T07:39:18;10.07;;;6.80;;
52724;SDS011;38621;52.830;6.914;2023-04-06T07:41:44;9.32;;;6.50;;
52724;SDS011;38621;52.830;6.914;2023-04-06T07:44:10;8.45;;;6.15;;
52724;SDS011;38621;52.830;6.914;2023-04-06T07:46:36;9.27;;;6.32;;
52724;SDS011;38621;52.830;6.914;2023-04-06T07:49:01;9.52;;;7.05;;
52724;SDS011;38621;52.830;6.914;2023-04-06T07:51:27;8.85;;;6.00;;
52724;SDS011;38621;52.830;6.914;2023-04-06T07:53:53;8.55;;;6.80;;
52724;SDS011;38621;52.830;6.914;2023-04-06T07:56:19;8.10;;;6.22;;
52724;SDS011;38621;52.830;6.914;2023-04-06T07:58:46;11.05;;;7.32;;
52724;SDS011;38621;52.830;6.914;2023-04-06T08:01:11;8.48;;;6.70;;
52724;SDS011;38621;52.830;6.914;2023-04-06T08:03:37;10.40;;;6.07;;
52724;SDS011;38621;52.830;6.914;2023-04-06T08:06:03;7.65;;;6.25;;
52724;SDS011;38621;52.830;6.914;2023-04-06T08:08:30;10.60;;;6.35;;
52724;SDS011;38621;52.830;6.914;2023-04-06T08:10:55;8.98;;;6.22;;
52724;SDS011;38621;52.830;6.914;2023-04-06T08:13:21;9.07;;;6.80;;
52724;SDS011;38621;52.830;6.914;2023-04-06T08:15:47;9.23;;;6.53;;
52724;SDS011;38621;52.830;6.914;2023-04-06T08:18:13;9.93;;;6.90;;
52724;SDS011;38621;52.830;6.914;2023-04-06T08:20:39;11.20;;;6.82;;
52724;SDS011;38621;52.830;6.914;2023-04-06T08:23:05;9.93;;;6.85;;
52724;SDS011;38621;52.830;6.914;2023-04-06T08:25:33;8.05;;;5.93;;
52724;SDS011;38621;52.830;6.914;2023-04-06T08:28:00;10.38;;;6.88;;
52724;SDS011;38621;52.830;6.914;2023-04-06T08:30:26;12.27;;;6.88;;
52724;SDS011;38621;52.830;6.914;2023-04-06T08:32:52;8.80;;;6.47;;
52724;SDS011;38621;52.830;6.914;2023-04-06T08:35:17;9.45;;;6.45;;
52724;SDS011;38621;52.830;6.914;2023-04-06T08:37:44;8.45;;;5.88;;
52724;SDS011;38621;52.830;6.914;2023-04-06T08:40:10;9.93;;;6.55;;
52724;SDS011;38621;52.830;6.914;2023-04-06T08:42:39;10.38;;;6.80;;
52724;SDS011;38621;52.830;6.914;2023-04-06T08:45:08;8.82;;;6.10;;
52724;SDS011;38621;52.830;6.914;2023-04-06T08:47:35;7.90;;;5.63;;
52724;SDS011;38621;52.830;6.914;2023-04-06T08:50:04;10.60;;;6.43;;
52724;SDS011;38621;52.830;6.914;2023-04-06T08:52:31;8.13;;;6.28;;
52724;SDS011;38621;52.830;6.914;2023-04-06T08:54:58;12.10;;;6.65;;
52724;SDS011;38621;52.830;6.914;2023-04-06T08:57:24;8.75;;;6.18;;
52724;SDS011;38621;52.830;6.914;2023-04-06T08:59:51;9.70;;;6.35;;
52724;SDS011;38621;52.830;6.914;2023-04-06T09:02:18;8.95;;;6.47;;
52724;SDS011;38621;52.830;6.914;2023-04-06T09:04:48;7.88;;;6.07;;
52724;SDS011;38621;52.830;6.914;2023-04-06T09:07:15;8.43;;;5.40;;
52724;SDS011;38621;52.830;6.914;2023-04-06T09:09:41;9.00;;;6.13;;
52724;SDS011;38621;52.830;6.914;2023-04-06T09:12:29;9.60;;;6.32;;
52724;SDS011;38621;52.830;6.914;2023-04-06T09:14:56;9.38;;;6.82;;
52724;SDS011;38621;52.830;6.914;2023-04-06T09:17:26;7.20;;;6.28;;
52724;SDS011;38621;52.830;6.914;2023-04-06T09:19:53;10.25;;;6.70;;
52724;SDS011;38621;52.830;6.914;2023-04-06T09:22:19;10.27;;;6.20;;
52724;SDS011;38621;52.830;6.914;2023-04-06T09:24:46;8.85;;;6.18;;
52724;SDS011;38621;52.830;6.914;2023-04-06T09:27:16;8.85;;;6.32;;
52724;SDS011;38621;52.830;6.914;2023-04-06T09:29:43;8.70;;;5.93;;
52724;SDS011;38621;52.830;6.914;2023-04-06T09:32:09;10.70;;;7.07;;
52724;SDS011;38621;52.830;6.914;2023-04-06T09:34:39;10.70;;;6.75;;
52724;SDS011;38621;52.830;6.914;2023-04-06T09:37:38;8.90;;;6.65;;
52724;SDS011;38621;52.830;6.914;2023-04-06T09:40:04;9.50;;;6.88;;
52724;SDS011;38621;52.830;6.914;2023-04-06T09:42:30;9.60;;;6.38;;
52724;SDS011;38621;52.830;6.914;2023-04-06T09:44:56;10.10;;;6.97;;
52724;SDS011;38621;52.830;6.914;2023-04-06T09:47:22;8.93;;;7.03;;
52724;SDS011;38621;52.830;6.914;2023-04-06T09:49:50;9.45;;;7.18;;
52724;SDS011;38621;52.830;6.914;2023-04-06T09:52:19;10.40;;;7.63;;
52724;SDS011;38621;52.830;6.914;2023-04-06T09:54:46;11.60;;;7.60;;
52724;SDS011;38621;52.830;6.914;2023-04-06T10:00:13;10.63;;;7.78;;
52724;SDS011;38621;52.830;6.914;2023-04-06T10:05:57;12.50;;;8.13;;
52724;SDS011;38621;52.830;6.914;2023-04-06T10:08:29;11.95;;;7.78;;
52724;SDS011;38621;52.830;6.914;2023-04-06T10:10:58;10.48;;;7.68;;
52724;SDS011;38621;52.830;6.914;2023-04-06T10:13:25;10.85;;;7.95;;
52724;SDS011;38621;52.830;6.914;2023-04-06T10:15:51;10.80;;;7.75;;
52724;SDS011;38621;52.830;6.914;2023-04-06T10:18:17;12.60;;;8.27;;
52724;SDS011;38621;52.830;6.914;2023-04-06T10:20:52;12.07;;;8.40;;
52724;SDS011;38621;52.830;6.914;2023-04-06T10:26:24;12.07;;;8.25;;
52724;SDS011;38621;52.830;6.914;2023-04-06T10:28:50;14.30;;;9.38;;
52724;SDS011;38621;52.830;6.914;2023-04-06T10:31:23;12.98;;;9.20;;
52724;SDS011;38621;52.830;6.914;2023-04-06T10:33:54;14.90;;;9.80;;
52724;SDS011;38621;52.830;6.914;2023-04-06T10:36:25;11.77;;;9.05;;
52724;SDS011;38621;52.830;6.914;2023-04-06T10:38:56;13.57;;;9.05;;
52724;SDS011;38621;52.830;6.914;2023-04-06T10:41:24;16.02;;;10.45;;
52724;SDS011;38621;52.830;6.914;2023-04-06T10:46:29;13.33;;;9.77;;
52724;SDS011;38621;52.830;6.914;2023-04-06T10:48:55;14.30;;;10.38;;
52724;SDS011;38621;52.830;6.914;2023-04-06T10:51:26;15.65;;;10.13;;
52724;SDS011;38621;52.830;6.914;2023-04-06T10:53:53;14.35;;;10.00;;
52724;SDS011;38621;52.830;6.914;2023-04-06T10:56:23;15.82;;;10.50;;
52724;SDS011;38621;52.830;6.914;2023-04-06T10:58:53;14.80;;;10.80;;
52724;SDS011;38621;52.830;6.914;2023-04-06T11:01:23;14.48;;;9.93;;
52724;SDS011;38621;52.830;6.914;2023-04-06T11:03:53;12.25;;;9.43;;
52724;SDS011;38621;52.830;6.914;2023-04-06T11:08:50;16.10;;;10.70;;
52724;SDS011;38621;52.830;6.914;2023-04-06T11:11:17;13.80;;;10.80;;
52724;SDS011;38621;52.830;6.914;2023-04-06T11:13:46;15.73;;;10.77;;
52724;SDS011;38621;52.830;6.914;2023-04-06T11:16:25;14.68;;;11.30;;
52724;SDS011;38621;52.830;6.914;2023-04-06T11:18:56;14.55;;;11.20;;
52724;SDS011;38621;52.830;6.914;2023-04-06T11:26:43;13.23;;;10.95;;
52724;SDS011;38621;52.830;6.914;2023-04-06T11:29:15;15.20;;;11.02;;
52724;SDS011;38621;52.830;6.914;2023-04-06T11:31:52;15.30;;;11.50;;
52724;SDS011;38621;52.830;6.914;2023-04-06T11:34:23;14.68;;;11.40;;
52724;SDS011;38621;52.830;6.914;2023-04-06T11:37:00;13.68;;;10.60;;
52724;SDS011;38621;52.830;6.914;2023-04-06T11:39:27;14.27;;;10.90;;
52724;SDS011;38621;52.830;6.914;2023-04-06T11:41:55;15.48;;;10.45;;
52724;SDS011;38621;52.830;6.914;2023-04-06T11:44:36;15.90;;;11.48;;
52724;SDS011;38621;52.830;6.914;2023-04-06T11:47:08;16.60;;;11.43;;
52724;SDS011;38621;52.830;6.914;2023-04-06T11:49:41;14.32;;;10.57;;
52724;SDS011;38621;52.830;6.914;2023-04-06T11:52:23;14.02;;;11.85;;
52724;SDS011;38621;52.830;6.914;2023-04-06T11:54:50;13.02;;;11.25;;
52724;SDS011;38621;52.830;6.914;2023-04-06T11:57:18;16.98;;;11.57;;
52724;SDS011;38621;52.830;6.914;2023-04-06T11:59:44;13.73;;;10.68;;
52724;SDS011;38621;52.830;6.914;2023-04-06T12:02:10;16.58;;;11.82;;
52724;SDS011;38621;52.830;6.914;2023-04-06T12:04:37;15.25;;;11.70;;
52724;SDS011;38621;52.830;6.914;2023-04-06T12:07:03;15.50;;;11.20;;
52724;SDS011;38621;52.830;6.914;2023-04-06T12:09:29;15.52;;;12.13;;
52724;SDS011;38621;52.830;6.914;2023-04-06T12:11:56;15.23;;;11.75;;
52724;SDS011;38621;52.830;6.914;2023-04-06T12:14:22;15.95;;;12.45;;
52724;SDS011;38621;52.830;6.914;2023-04-06T12:16:48;15.02;;;12.32;;
52724;SDS011;38621;52.830;6.914;2023-04-06T12:19:13;15.05;;;12.20;;
52724;SDS011;38621;52.830;6.914;2023-04-06T12:21:39;16.80;;;11.30;;
52724;SDS011;38621;52.830;6.914;2023-04-06T12:24:05;13.77;;;10.63;;
52724;SDS011;38621;52.830;6.914;2023-04-06T12:26:31;15.02;;;10.23;;
52724;SDS011;38621;52.830;6.914;2023-04-06T12:28:58;15.68;;;11.10;;
52724;SDS011;38621;52.830;6.914;2023-04-06T12:31:32;15.88;;;11.60;;
52724;SDS011;38621;52.830;6.914;2023-04-06T12:34:00;16.95;;;12.18;;
52724;SDS011;38621;52.830;6.914;2023-04-06T12:36:27;14.63;;;11.38;;
52724;SDS011;38621;52.830;6.914;2023-04-06T12:38:53;17.83;;;13.18;;
52724;SDS011;38621;52.830;6.914;2023-04-06T12:41:19;14.70;;;10.55;;
52724;SDS011;38621;52.830;6.914;2023-04-06T12:43:45;16.80;;;11.70;;
52724;SDS011;38621;52.830;6.914;2023-04-06T12:46:11;16.48;;;11.73;;
52724;SDS011;38621;52.830;6.914;2023-04-06T12:48:37;14.80;;;11.05;;
52724;SDS011;38621;52.830;6.914;2023-04-06T12:51:04;15.95;;;11.60;;
52724;SDS011;38621;52.830;6.914;2023-04-06T12:53:31;15.90;;;11.85;;
52724;SDS011;38621;52.830;6.914;2023-04-06T12:55:58;16.85;;;11.80;;
52724;SDS011;38621;52.830;6.914;2023-04-06T12:58:24;16.08;;;11.77;;
52724;SDS011;38621;52.830;6.914;2023-04-06T13:00:54;16.88;;;11.85;;
52724;SDS011;38621;52.830;6.914;2023-04-06T13:03:21;13.60;;;10.85;;
52724;SDS011;38621;52.830;6.914;2023-04-06T13:05:47;16.13;;;10.85;;
52724;SDS011;38621;52.830;6.914;2023-04-06T13:08:14;16.63;;;12.02;;
52724;SDS011;38621;52.830;6.914;2023-04-06T13:10:44;14.50;;;10.55;;
52724;SDS011;38621;52.830;6.914;2023-04-06T13:13:14;16.35;;;11.18;;
52724;SDS011;38621;52.830;6.914;2023-04-06T13:15:40;15.30;;;11.73;;
52724;SDS011;38621;52.830;6.914;2023-04-06T13:18:06;15.30;;;11.90;;
52724;SDS011;38621;52.830;6.914;2023-04-06T13:20:33;15.60;;;11.13;;
52724;SDS011;38621;52.830;6.914;2023-04-06T13:22:58;16.73;;;11.98;;
52724;SDS011;38621;52.830;6.914;2023-04-06T13:25:24;16.23;;;11.77;;
52724;SDS011;38621;52.830;6.914;2023-04-06T13:27:50;15.98;;;11.80;;
52724;SDS011;38621;52.830;6.914;2023-04-06T13:30:16;15.55;;;11.43;;
52724;SDS011;38621;52.830;6.914;2023-04-06T13:32:42;17.13;;;11.38;;
52724;SDS011;38621;52.830;6.914;2023-04-06T13:35:08;15.55;;;11.23;;
52724;SDS011;38621;52.830;6.914;2023-04-06T13:37:34;14.20;;;10.43;;
52724;SDS011;38621;52.830;6.914;2023-04-06T13:40:01;16.13;;;11.10;;
52724;SDS011;38621;52.830;6.914;2023-04-06T13:42:28;14.02;;;10.38;;
52724;SDS011;38621;52.830;6.914;2023-04-06T13:44:54;15.80;;;11.20;;
52724;SDS011;38621;52.830;6.914;2023-04-06T13:47:19;16.58;;;11.55;;
52724;SDS011;38621;52.830;6.914;2023-04-06T13:49:51;15.15;;;11.77;;
52724;SDS011;38621;52.830;6.914;2023-04-06T13:52:18;18.35;;;12.18;;
52724;SDS011;38621;52.830;6.914;2023-04-06T13:54:44;16.15;;;11.63;;
52724;SDS011;38621;52.830;6.914;2023-04-06T13:57:15;17.02;;;11.35;;
52724;SDS011;38621;52.830;6.914;2023-04-06T13:59:41;14.95;;;11.20;;
52724;SDS011;38621;52.830;6.914;2023-04-06T14:02:08;15.10;;;10.88;;
52724;SDS011;38621;52.830;6.914;2023-04-06T14:04:34;16.15;;;11.50;;
52724;SDS011;38621;52.830;6.914;2023-04-06T14:07:01;16.30;;;11.65;;
52724;SDS011;38621;52.830;6.914;2023-04-06T14:09:27;17.83;;;10.80;;
52724;SDS011;38621;52.830;6.914;2023-04-06T14:11:54;15.52;;;10.07;;
52724;SDS011;38621;52.830;6.914;2023-04-06T14:14:20;13.40;;;9.13;;
52724;SDS011;38621;52.830;6.914;2023-04-06T14:16:46;13.70;;;8.95;;
52724;SDS011;38621;52.830;6.914;2023-04-06T14:19:12;15.73;;;10.57;;
52724;SDS011;38621;52.830;6.914;2023-04-06T14:21:41;14.80;;;9.93;;
52724;SDS011;38621;52.830;6.914;2023-04-06T14:24:07;14.25;;;9.75;;
52724;SDS011;38621;52.830;6.914;2023-04-06T14:26:34;17.23;;;11.40;;
52724;SDS011;38621;52.830;6.914;2023-04-06T14:29:00;13.90;;;10.35;;
52724;SDS011;38621;52.830;6.914;2023-04-06T14:31:27;14.52;;;10.38;;
52724;SDS011;38621;52.830;6.914;2023-04-06T14:33:53;16.13;;;10.75;;
52724;SDS011;38621;52.830;6.914;2023-04-06T14:36:18;14.43;;;9.40;;
52724;SDS011;38621;52.830;6.914;2023-04-06T14:38:44;15.13;;;10.63;;
52724;SDS011;38621;52.830;6.914;2023-04-06T14:41:18;16.45;;;10.65;;
52724;SDS011;38621;52.830;6.914;2023-04-06T14:43:45;14.20;;;9.43;;
52724;SDS011;38621;52.830;6.914;2023-04-06T14:46:12;12.90;;;8.90;;
52724;SDS011;38621;52.830;6.914;2023-04-06T14:48:38;12.60;;;8.93;;
52724;SDS011;38621;52.830;6.914;2023-04-06T14:51:04;12.32;;;8.45;;
52724;SDS011;38621;52.830;6.914;2023-04-06T14:53:30;12.13;;;7.72;;
52724;SDS011;38621;52.830;6.914;2023-04-06T14:55:56;13.73;;;8.90;;